Time,TemperatureF,DewpointF,PressureIn,WindDirection,WindDirectionDegrees,WindSpeedMPH,WindSpeedGustMPH,Humidity,HourlyPrecipIn,Conditions,Clouds,dailyrainin,SoftwareType,DateUTC
2013-01-29 09:20:00,73.0,67.9,29.85,SE,135,6.9,9.0,84,0.00,,---,0.00,VWS V14.00,2013-01-29 15:20:00,
2013-01-29 09:30:00,73.0,67.9,29.85,SSE,158,4.7,4.7,84,0.00,,---,0.00,VWS V14.00,2013-01-29 15:30:00,
2013-01-29 09:40:00,73.0,67.9,29.85,East,90,5.8,10.1,84,0.00,,---,0.00,VWS V14.00,2013-01-29 15:40:00,
2013-01-29 09:50:00,73.0,67.9,29.85,SE,135,4.9,8.5,84,0.00,,---,0.00,VWS V14.00,2013-01-29 15:50:00,
2013-01-29 10:00:00,73.0,67.9,29.82,SW,225,4.3,5.8,84,0.00,,---,0.00,VWS V14.00,2013-01-29 16:00:00,
2013-01-29 10:10:00,73.0,68.3,29.82,SE,135,6.5,8.1,85,0.00,,---,0.00,VWS V14.00,2013-01-29 16:10:00,
2013-01-29 13:20:00,75.9,67.8,29.71,ESE,112,9.6,13.0,76,0.00,,---,0.00,VWS V14.00,2013-01-29 19:20:00,
2013-01-29 13:30:00,75.9,67.4,29.71,SSE,158,5.6,10.5,75,0.00,,---,0.00,VWS V14.00,2013-01-29 19:30:00,
2013-01-29 13:40:00,76.1,67.6,29.71,SSE,158,17.5,17.5,75,0.00,,---,0.00,VWS V14.00,2013-01-29 19:40:00,
2013-01-29 13:50:00,76.3,67.8,29.71,SE,135,8.7,8.7,75,0.00,,---,0.00,VWS V14.00,2013-01-29 19:50:00,
2013-01-29 14:00:00,76.1,67.6,29.71,SW,225,8.5,9.6,75,0.00,,---,0.00,VWS V14.00,2013-01-29 20:00:00,
2013-01-29 14:10:00,76.1,67.6,29.71,South,180,8.1,17.7,75,0.00,,---,0.00,VWS V14.00,2013-01-29 20:10:00,
2013-01-29 14:40:00,75.9,67.4,29.68,South,180,5.8,10.7,75,0.00,,---,3.25,VWS V14.00,2013-01-29 20:40:00,
2013-01-29 14:50:00,75.9,67.4,29.65,South,180,3.6,4.9,75,0.00,,---,0.00,VWS V14.00,2013-01-29 20:50:00,
2013-01-29 15:00:00,75.7,67.3,29.65,SE,135,6.3,8.5,75,0.00,,---,0.00,VWS V14.00,2013-01-29 21:00:00,
2013-01-29 15:10:00,75.7,67.3,29.65,South,180,3.6,14.8,75,0.00,,---,0.00,VWS V14.00,2013-01-29 21:10:00,
2013-01-29 15:20:00,75.7,67.6,29.65,SE,135,10.5,11.0,76,0.00,,---,0.00,VWS V14.00,2013-01-29 21:20:00,
2013-01-29 15:30:00,75.7,67.3,29.65,ESE,112,6.7,6.7,75,0.00,,---,0.00,VWS V14.00,2013-01-29 21:30:00,
2013-01-29 15:40:00,75.7,67.6,29.65,SE,135,9.6,9.6,76,0.00,,---,0.00,VWS V14.00,2013-01-29 21:40:00,
2013-01-29 15:50:00,75.7,67.6,29.65,South,180,13.6,13.6,76,0.00,,---,0.00,VWS V14.00,2013-01-29 21:50:00,
2013-01-29 16:00:00,75.7,67.6,29.62,SE,135,8.1,8.1,76,0.00,,---,0.00,VWS V14.00,2013-01-29 22:00:00,
2013-01-29 16:10:00,75.7,67.6,29.62,SE,135,5.8,12.8,76,0.00,,---,0.00,VWS V14.00,2013-01-29 22:10:00,
2013-01-29 16:20:00,75.6,67.5,29.62,SSE,158,7.2,8.7,76,0.00,,---,0.00,VWS V14.00,2013-01-29 22:20:00,
2013-01-29 16:30:00,75.6,67.5,29.62,SE,135,5.4,9.4,76,0.00,,---,0.00,VWS V14.00,2013-01-29 22:30:00,
2013-01-29 16:40:00,75.6,67.5,29.62,SE,135,2.7,10.1,76,0.00,,---,0.00,VWS V14.00,2013-01-29 22:40:00,
2013-01-29 16:50:00,75.4,67.3,29.62,SE,135,6.5,13.2,76,0.00,,---,0.00,VWS V14.00,2013-01-29 22:50:00,
2013-01-29 17:00:00,75.4,67.3,29.62,East,90,3.6,12.3,76,0.00,,---,0.00,VWS V14.00,2013-01-29 23:00:00,
2013-01-29 17:10:00,75.2,67.5,29.62,SE,135,4.7,5.8,77,0.00,,---,0.00,VWS V14.00,2013-01-29 23:10:00,
2013-01-29 17:20:00,75.2,67.5,29.62,SE,135,5.8,11.4,77,0.00,,---,0.00,VWS V14.00,2013-01-29 23:20:00,
2013-01-29 17:40:00,75.0,67.7,29.62,South,180,4.3,12.5,78,0.00,,---,0.00,VWS V14.00,2013-01-29 23:40:00,
2013-01-29 17:50:00,74.8,67.5,29.62,East,90,6.3,7.4,78,0.00,,---,0.00,VWS V14.00,2013-01-29 23:50:00,
2013-01-29 18:00:00,74.8,67.5,29.59,South,180,6.3,11.9,78,0.00,,---,0.00,VWS V14.00,2013-01-30 00:00:00,
2013-01-29 18:10:00,74.7,67.3,29.59,SSE,158,6.7,8.5,78,0.00,,---,0.00,VWS V14.00,2013-01-30 00:10:00,
2013-01-29 18:20:00,74.7,67.3,29.59,SSE,158,13.4,14.8,78,0.00,,---,0.00,VWS V14.00,2013-01-30 00:20:00,
2013-01-29 18:30:00,74.7,67.7,29.59,South,180,11.0,19.9,79,0.00,,---,0.00,VWS V14.00,2013-01-30 00:30:00,
2013-01-29 18:40:00,74.5,67.6,29.59,SE,135,9.8,11.9,79,0.00,,---,0.00,VWS V14.00,2013-01-30 00:40:00,
2013-01-29 18:50:00,74.5,67.6,29.59,South,180,6.3,10.1,79,0.00,,---,0.00,VWS V14.00,2013-01-30 00:50:00,
2013-01-29 19:00:00,74.5,67.6,29.62,East,90,5.4,9.8,79,0.00,,---,0.00,VWS V14.00,2013-01-30 01:00:00,
2013-01-29 19:10:00,74.5,67.9,29.62,SSE,158,11.0,11.0,80,0.00,,---,0.00,VWS V14.00,2013-01-30 01:10:00,
2013-01-29 19:20:00,74.5,67.9,29.62,East,90,10.7,10.7,80,0.00,,---,0.00,VWS V14.00,2013-01-30 01:20:00,
2013-01-29 19:40:00,74.5,67.9,29.62,East,90,17.5,17.5,80,0.00,,---,0.00,VWS V14.00,2013-01-30 01:40:00,
2013-01-29 19:50:00,74.3,67.7,29.59,SE,135,10.7,15.2,80,0.00,,---,0.00,VWS V14.00,2013-01-30 01:50:00,
2013-01-29 20:00:00,74.3,67.7,29.62,SE,135,8.1,8.5,80,0.00,,---,0.00,VWS V14.00,2013-01-30 02:00:00,
2013-01-29 20:10:00,74.3,67.7,29.62,SE,135,3.8,10.1,80,0.00,,---,0.00,VWS V14.00,2013-01-30 02:10:00,
2013-01-29 20:20:00,74.3,67.7,29.62,South,180,5.8,9.4,80,0.00,,---,0.00,VWS V14.00,2013-01-30 02:20:00,
2013-01-29 20:30:00,74.3,67.7,29.62,NW,315,4.0,12.3,80,0.00,,---,0.00,VWS V14.00,2013-01-30 02:30:00,
2013-01-29 20:40:00,74.3,67.7,29.62,SW,225,8.1,8.7,80,0.00,,---,0.00,VWS V14.00,2013-01-30 02:40:00,
2013-01-29 20:50:00,74.3,68.1,29.62,South,180,7.2,11.4,81,0.00,,---,0.00,VWS V14.00,2013-01-30 02:50:00,
2013-01-29 21:00:00,74.3,68.1,29.62,South,180,6.0,11.0,81,0.00,,---,0.00,VWS V14.00,2013-01-30 03:00:00,
2013-01-29 21:10:00,74.3,68.1,29.62,SW,225,10.1,10.1,81,0.00,,---,0.00,VWS V14.00,2013-01-30 03:10:00,
2013-01-29 21:20:00,74.3,68.1,29.62,SSE,158,8.1,11.0,81,0.00,,---,0.00,VWS V14.00,2013-01-30 03:20:00,
2013-01-29 21:30:00,74.3,68.1,29.62,West,270,2.0,6.0,81,0.00,,---,0.00,VWS V14.00,2013-01-30 03:30:00,
2013-01-29 21:40:00,74.3,68.1,29.62,ESE,112,12.8,12.8,81,0.00,,---,0.00,VWS V14.00,2013-01-30 03:40:00,
2013-01-29 21:50:00,72.3,60.8,29.68,West,270,11.0,17.7,67,0.00,,---,0.00,VWS V14.00,2013-01-30 03:50:00,
2013-01-29 22:00:00,70.0,58.5,29.71,West,270,6.5,10.1,67,0.00,,---,0.00,VWS V14.00,2013-01-30 04:00:00,
2013-01-29 22:10:00,67.8,56.9,29.71,West,270,7.6,9.6,68,0.00,,---,0.00,VWS V14.00,2013-01-30 04:10:00,
2013-01-29 22:20:00,66.6,56.1,29.71,West,270,6.5,6.5,69,0.00,,---,0.00,VWS V14.00,2013-01-30 04:20:00,
2013-01-29 22:30:00,65.1,55.1,29.71,West,270,2.7,5.8,70,0.00,,---,0.00,VWS V14.00,2013-01-30 04:30:00,
2013-01-29 22:40:00,64.6,55.4,29.71,SW,225,3.4,4.3,72,0.00,,---,0.00,VWS V14.00,2013-01-30 04:40:00,
2013-01-29 22:50:00,64.0,55.2,29.71,West,270,2.5,4.9,73,0.00,,---,0.00,VWS V14.00,2013-01-30 04:50:00,
2013-01-29 23:00:00,63.9,55.8,29.71,SW,225,4.0,5.4,75,0.00,,---,0.00,VWS V14.00,2013-01-30 05:00:00,
2013-01-29 23:10:00,63.7,55.6,29.71,West,270,4.3,5.8,75,0.00,,---,0.00,VWS V14.00,2013-01-30 05:10:00,
2013-01-29 23:20:00,63.5,55.1,29.74,NW,315,3.1,3.6,74,0.00,,---,0.00,VWS V14.00,2013-01-30 05:20:00,
2013-01-29 23:30:00,63.5,55.1,29.74,NNW,338,5.4,5.4,74,0.00,,---,0.00,VWS V14.00,2013-01-30 05:30:00,
2013-01-29 23:40:00,63.3,54.5,29.74,West,270,3.6,5.6,73,0.00,,---,0.00,VWS V14.00,2013-01-30 05:40:00,
2013-01-29 23:50:00,63.1,54.3,29.74,West,270,0.0,1.6,73,0.00,,---,0.00,VWS V14.00,2013-01-30 05:50:00,